Time;durP1;ratioP1;P1;durP2;ratioP2;P2;SDS_P1;SDS_P2;PMS_P1;PMS_P2;Temp;Humidity;BMP_temperature;BMP_pressure;BME280_temperature;BME280_humidity;BME280_pressure;Samples;Min_cycle;Max_cycle;Signal;HPM_P1;HPM_P2
2023/06/12 00:05:59;;;;;;;7.7;4.5;;;;;;;11.9;83.4;99050;;;;
2023/06/12 00:15:59;;;;;;;7.7;4.5;;;;;;;11.6;85.2;99050;;;;
2023/06/12 00:26:59;;;;;;;7.1;4;;;;;;;11.6;85.9;99050;;;;
2023/06/12 00:38:00;;;;;;;7.1;4;;;;;;;11.4;86.9;99050;;;;
2023/06/12 00:47:59;;;;;;;6.8;3.5;;;;;;;11.3;87.3;99050;;;;
2023/06/12 00:57:59;;;;;;;6.8;3.5;;;;;;;11.2;86.9;99050;;;;
2023/06/12 01:08:00;;;;;;;6.8;3.5;;;;;;;11.1;86.5;99050;;;;
2023/06/12 01:18:00;;;;;;;7;3.9;;;;;;;10.9;87.6;99050;;;;
2023/06/12 01:29:00;;;;;;;7;3.9;;;;;;;10.8;89;99050;;;;
2023/06/12 01:39:00;;;;;;;7;3.9;;;;;;;10.8;89.6;99050;;;;
2023/06/12 01:50:00;;;;;;;8.2;3.6;;;;;;;10.8;89.3;99050;;;;
2023/06/12 02:00:00;;;;;;;8.2;3.6;;;;;;;10.8;89.6;99060;;;;
2023/06/12 02:10:00;;;;;;;8.2;3.6;;;;;;;10.7;89.6;99060;;;;
2023/06/12 02:20:00;;;;;;;6.6;3.7;;;;;;;10.7;89.5;99060;;;;
2023/06/12 02:31:00;;;;;;;6.6;3.7;;;;;;;10.6;89.6;99060;;;;
2023/06/12 02:41:00;;;;;;;6.6;3.7;;;;;;;10.5;90.2;99070;;;;
2023/06/12 02:52:00;;;;;;;9.1;4.2;;;;;;;10.4;90.1;99080;;;;
2023/06/12 03:02:00;;;;;;;9.1;4.2;;;;;;;10.5;89.8;99090;;;;
2023/06/12 03:13:00;;;;;;;9.1;4.2;;;;;;;10.3;89.6;99100;;;;
2023/06/12 03:23:00;;;;;;;7.4;4.3;;;;;;;10.4;89.6;99110;;;;
2023/06/12 03:34:00;;;;;;;7.4;4.3;;;;;;;10.5;89.5;99110;;;;
2023/06/12 03:45:00;;;;;;;7.4;4.3;;;;;;;10.5;89.9;99120;;;;
2023/06/12 03:56:00;;;;;;;13.1;5;;;;;;;10.7;89.5;99110;;;;
2023/06/12 04:06:00;;;;;;;13.1;5;;;;;;;10.9;89.3;99100;;;;
2023/06/12 04:16:00;;;;;;;13.1;5;;;;;;;11.1;88.4;99110;;;;
2023/06/12 04:26:04;;;;;;;7.2;4.9;;;;;;;11.4;87.6;99110;;;;
2023/06/12 04:36:01;;;;;;;7.2;4.9;;;;;;;11.6;86.7;99120;;;;
2023/06/12 04:46:00;;;;;;;7.2;4.9;;;;;;;11.9;85.9;99120;;;;
2023/06/12 04:57:02;;;;;;;8.9;6.5;;;;;;;12.1;84.1;99120;;;;
2023/06/12 05:08:00;;;;;;;8.9;6.5;;;;;;;12.5;83.1;99130;;;;
2023/06/12 05:18:00;;;;;;;10.3;6.9;;;;;;;12.7;80.5;99130;;;;
2023/06/12 05:28:00;;;;;;;10.3;6.9;;;;;;;13;78.4;99130;;;;
2023/06/12 05:39:00;;;;;;;10.3;6.9;;;;;;;13.5;75.8;99130;;;;
2023/06/12 05:50:00;;;;;;;8.9;6.5;;;;;;;13.9;72.2;99140;;;;
2023/06/12 06:00:00;;;;;;;8.9;6.5;;;;;;;13.9;70.6;99140;;;;
2023/06/12 06:11:00;;;;;;;8.9;6.5;;;;;;;14.1;68.3;99130;;;;
2023/06/12 06:21:00;;;;;;;8.1;4.2;;;;;;;14.2;65.4;99140;;;;
2023/06/12 06:31:00;;;;;;;8.1;4.2;;;;;;;14.5;64.1;99140;;;;
2023/06/12 06:42:00;;;;;;;8.1;4.2;;;;;;;14.7;59.8;99140;;;;
2023/06/12 06:52:00;;;;;;;6.5;3.5;;;;;;;14.6;61.5;99140;;;;
2023/06/12 07:02:00;;;;;;;6.5;3.5;;;;;;;14.7;59.5;99150;;;;
2023/06/12 07:12:00;;;;;;;6.5;3.5;;;;;;;15.2;56.6;99150;;;;
2023/06/12 07:23:00;;;;;;;6.1;3;;;;;;;15.4;57.4;99140;;;;
2023/06/12 07:29:41;;;;;;;6.1;3;;;;;;;15.6;57.3;99140;;;;
2023/06/12 07:39:41;;;;;;;6.1;3;;;;;;;15.6;57.8;99140;;;;
2023/06/12 07:49:41;;;;;;;5.9;3;;;;;;;16.1;55.1;99150;;;;
2023/06/12 07:59:42;;;;;;;5.9;3;;;;;;;15.9;54.9;99150;;;;
2023/06/12 08:09:41;;;;;;;5.9;3;;;;;;;16;56.3;99140;;;;
2023/06/12 08:19:41;;;;;;;7.7;3.9;;;;;;;16.3;54.6;99140;;;;
2023/06/12 08:30:41;;;;;;;7.7;3.9;;;;;;;16.9;53.1;99140;;;;
2023/06/12 08:40:42;;;;;;;7.7;3.9;;;;;;;17.1;50;99140;;;;
2023/06/12 08:50:41;;;;;;;8.7;3.1;;;;;;;16.6;49;99130;;;;
2023/06/12 09:01:42;;;;;;;8.7;3.1;;;;;;;16.9;48.7;99120;;;;
2023/06/12 09:12:43;;;;;;;8.7;3.1;;;;;;;17.3;47.4;99130;;;;
2023/06/12 09:22:41;;;;;;;6.8;2.7;;;;;;;17;47.8;99130;;;;
2023/06/12 09:32:43;;;;;;;6.8;2.7;;;;;;;16.7;47.5;99130;;;;
2023/06/12 09:42:41;;;;;;;6.8;2.7;;;;;;;16.9;47.5;99130;;;;
2023/06/12 09:52:41;;;;;;;8.2;2.7;;;;;;;16.4;47.4;99130;;;;
2023/06/12 10:02:42;;;;;;;8.2;2.7;;;;;;;16.4;46.4;99120;;;;
2023/06/12 10:13:41;;;;;;;8.2;2.7;;;;;;;17.5;45.4;99100;;;;
2023/06/12 10:24:41;;;;;;;6.4;2.4;;;;;;;17.8;42.8;99100;;;;
2023/06/12 10:34:41;;;;;;;6.4;2.4;;;;;;;18.2;43.1;99090;;;;
2023/06/12 10:44:42;;;;;;;6.4;2.4;;;;;;;19.2;41.5;99080;;;;
2023/06/12 10:55:41;;;;;;;7.1;2.5;;;;;;;19.3;42.4;99060;;;;
2023/06/12 11:05:41;;;;;;;7.1;2.5;;;;;;;19.9;41.2;99060;;;;
2023/06/12 11:16:42;;;;;;;7.1;2.5;;;;;;;19.3;39.6;99040;;;;
2023/06/12 11:26:41;;;;;;;4.2;2.3;;;;;;;19.6;41.1;99030;;;;
2023/06/12 11:37:41;;;;;;;4.2;2.3;;;;;;;18.3;41.8;99020;;;;
2023/06/12 11:47:41;;;;;;;5.9;2.7;;;;;;;17.9;44.1;99020;;;;
2023/06/12 11:57:42;;;;;;;5.9;2.7;;;;;;;18.6;40.5;99000;;;;
2023/06/12 12:07:45;;;;;;;5.9;2.7;;;;;;;19.2;41.9;99000;;;;
2023/06/12 12:17:41;;;;;;;5.8;2.2;;;;;;;19.3;39.8;99000;;;;
2023/06/12 12:27:44;;;;;;;5.8;2.2;;;;;;;19.5;39.6;98990;;;;
2023/06/12 12:37:42;;;;;;;5.8;2.2;;;;;;;19.6;42.2;98980;;;;
2023/06/12 12:48:42;;;;;;;6.8;2.1;;;;;;;18.8;40.8;98980;;;;
2023/06/12 12:59:43;;;;;;;6.8;2.1;;;;;;;19.5;40.3;98970;;;;
2023/06/12 13:09:42;;;;;;;6.8;2.1;;;;;;;19.8;38.2;98960;;;;
2023/06/12 13:20:41;;;;;;;5.5;2.4;;;;;;;19.6;40.9;98960;;;;
2023/06/12 13:30:42;;;;;;;5.5;2.4;;;;;;;19.8;38.7;98960;;;;
2023/06/12 13:41:42;;;;;;;5.5;2.4;;;;;;;20.6;38.5;98950;;;;
2023/06/12 13:52:42;;;;;;;4.8;2;;;;;;;19.8;37.9;98950;;;;
2023/06/12 14:02:42;;;;;;;4.8;2;;;;;;;20.3;38.1;98950;;;;
2023/06/12 14:13:42;;;;;;;4.8;2;;;;;;;20.5;38.6;98930;;;;
2023/06/12 14:23:44;;;;;;;5.2;2.4;;;;;;;19.8;40.9;98940;;;;
2023/06/12 14:33:42;;;;;;;5.2;2.4;;;;;;;20.8;38.7;98930;;;;
2023/06/12 14:43:42;;;;;;;5.2;2.4;;;;;;;21;39.3;98920;;;;
2023/06/12 14:53:42;;;;;;;4.3;1.9;;;;;;;19.6;40;98930;;;;
2023/06/12 15:03:42;;;;;;;4.3;1.9;;;;;;;19.1;43.6;98930;;;;
2023/06/12 15:13:42;;;;;;;4.3;1.9;;;;;;;22.5;36.5;98910;;;;
2023/06/12 15:24:42;;;;;;;7;2.4;;;;;;;23.9;35;98910;;;;
2023/06/12 15:34:43;;;;;;;7;2.4;;;;;;;21.1;41.9;98910;;;;
2023/06/12 15:45:42;;;;;;;7;2.4;;;;;;;24;36.4;98900;;;;
2023/06/12 15:55:42;;;;;;;4.8;1.9;;;;;;;24.8;33.1;98900;;;;
2023/06/12 16:06:42;;;;;;;4.8;1.9;;;;;;;22.3;36.2;98890;;;;
2023/06/12 16:17:42;;;;;;;5.3;2;;;;;;;21;38.6;98900;;;;
2023/06/12 16:27:42;;;;;;;5.3;2;;;;;;;19.3;42.2;98900;;;;
2023/06/12 16:37:42;;;;;;;5.3;2;;;;;;;19.2;43.6;98900;;;;
2023/06/12 16:48:42;;;;;;;6.2;2.2;;;;;;;24;34.6;98890;;;;
2023/06/12 16:59:43;;;;;;;6.2;2.2;;;;;;;23.3;35.5;98910;;;;
2023/06/12 17:09:42;;;;;;;6.2;2.2;;;;;;;20.7;40.1;98910;;;;
2023/06/12 17:19:42;;;;;;;13.9;6.5;;;;;;;19.2;44.3;98910;;;;
2023/06/12 17:29:42;;;;;;;13.9;6.5;;;;;;;18.3;45.9;98910;;;;
2023/06/12 17:40:42;;;;;;;13.9;6.5;;;;;;;19.6;43.2;98900;;;;
2023/06/12 17:51:42;;;;;;;6.6;2.4;;;;;;;20.4;42.5;98920;;;;
2023/06/12 18:02:42;;;;;;;6.6;2.4;;;;;;;19.1;45.5;98920;;;;
2023/06/12 18:12:42;;;;;;;6.6;2.4;;;;;;;17.5;49.1;98930;;;;
2023/06/12 18:23:42;;;;;;;;;;;;;;;;;;;;;
2023/06/12 18:34:45;;;;;;;5.7;2.9;;;;;;;;;;;;;
2023/06/12 18:44:42;;;;;;;5.7;2.9;;;;;;;;;;;;;
2023/06/12 18:54:43;;;;;;;5.5;3;;;;;;;14.7;55.8;98930;;;;
2023/06/12 19:04:42;;;;;;;5.5;3;;;;;;;13.9;58.7;98940;;;;
2023/06/12 19:14:42;;;;;;;5.5;3;;;;;;;13.4;60.3;98950;;;;
2023/06/12 19:25:42;;;;;;;7.7;3.5;;;;;;;12.8;62.3;98960;;;;
2023/06/12 19:35:42;;;;;;;7.7;3.5;;;;;;;12.4;64.1;98970;;;;
2023/06/12 19:45:42;;;;;;;7.7;3.5;;;;;;;12;65.4;98970;;;;
2023/06/12 19:56:42;;;;;;;11.7;5.8;;;;;;;11.7;65.9;98960;;;;
2023/06/12 20:06:42;;;;;;;11.7;5.8;;;;;;;11.5;66.2;98970;;;;
2023/06/12 20:16:42;;;;;;;7.7;4.2;;;;;;;11.1;67.3;98960;;;;
2023/06/12 20:26:42;;;;;;;7.7;4.2;;;;;;;10.8;68.3;98960;;;;
2023/06/12 20:36:42;;;;;;;7.7;4.2;;;;;;;10.5;69.4;98960;;;;
2023/06/12 20:47:42;;;;;;;5.3;2.6;;;;;;;10.1;70.9;98950;;;;
2023/06/12 20:57:42;;;;;;;5.3;2.6;;;;;;;10;72.3;98950;;;;
2023/06/12 21:07:42;;;;;;;5.3;2.6;;;;;;;9.8;72.9;98950;;;;
2023/06/12 21:17:42;;;;;;;5;2.4;;;;;;;9.4;72.4;98950;;;;
2023/06/12 21:27:42;;;;;;;5;2.4;;;;;;;9.2;73.4;98950;;;;
2023/06/12 21:37:42;;;;;;;5;2.4;;;;;;;9.1;75.5;98950;;;;
2023/06/12 21:48:42;;;;;;;4.4;2.5;;;;;;;8.9;75.4;98940;;;;
2023/06/12 21:58:42;;;;;;;4.4;2.5;;;;;;;8.7;74.8;98940;;;;
2023/06/12 22:08:42;;;;;;;4.4;2.5;;;;;;;8.4;75.5;98940;;;;
2023/06/12 22:19:42;;;;;;;4.3;1.9;;;;;;;8.2;77.1;98930;;;;
2023/06/12 22:29:42;;;;;;;4.3;1.9;;;;;;;8.1;77.2;98930;;;;
2023/06/12 22:39:42;;;;;;;4.3;1.9;;;;;;;7.8;78.7;98910;;;;
2023/06/12 22:49:44;;;;;;;6.4;2.1;;;;;;;7.7;79.4;98910;;;;
2023/06/12 23:00:42;;;;;;;6.4;2.1;;;;;;;7.5;79.4;98910;;;;
2023/06/12 23:10:42;;;;;;;6.4;2.1;;;;;;;7.5;81;98900;;;;
2023/06/12 23:21:42;;;;;;;4.8;2.2;;;;;;;7.5;82.1;98890;;;;
2023/06/12 23:31:42;;;;;;;4.8;2.2;;;;;;;7.5;83;98880;;;;
2023/06/12 23:42:42;;;;;;;4.8;2.2;;;;;;;7.4;82.9;98880;;;;
2023/06/12 23:52:42;;;;;;;3.8;1.9;;;;;;;7.4;82.7;98870;;;;
